createdAt,value
2018-02-01T00:02:07.198Z,86.26
2018-02-01T00:04:34.645Z,84.57
2018-02-01T00:07:02.082Z,85.77
2018-02-01T00:09:29.545Z,86.42
2018-02-01T00:11:57.016Z,86.27
2018-02-01T00:14:24.496Z,86.56
2018-02-01T00:16:51.929Z,85.79
2018-02-01T00:19:19.368Z,85.59
2018-02-01T00:21:46.825Z,88.08
2018-02-01T00:24:14.344Z,87.63
2018-02-01T00:26:41.800Z,88.42
2018-02-01T00:29:09.229Z,87.57
2018-02-01T00:31:36.664Z,88.15
2018-02-01T00:34:04.117Z,88.31
2018-02-01T00:36:31.645Z,87.70
2018-02-01T00:38:59.317Z,87.45
2018-02-01T00:41:26.753Z,88.11
2018-02-01T00:43:54.209Z,88.21
2018-02-01T00:46:21.661Z,86.64
2018-02-01T00:48:49.120Z,87.62
2018-02-01T00:51:16.581Z,88.24
2018-02-01T00:53:44.009Z,87.79
2018-02-01T00:56:11.441Z,87.35
2018-02-01T00:58:38.893Z,85.14
2018-02-01T01:01:06.325Z,86.36
2018-02-01T01:03:33.812Z,87.42
2018-02-01T01:06:01.261Z,87.06
2018-02-01T01:08:28.704Z,85.58
2018-02-01T01:10:56.157Z,86.71
2018-02-01T01:13:23.609Z,86.17
2018-02-01T01:15:51.044Z,87.20
2018-02-01T01:18:18.524Z,86.51
2018-02-01T01:20:45.996Z,87.32
2018-02-01T01:23:13.434Z,86.67
2018-02-01T01:25:40.892Z,87.38
2018-02-01T01:28:08.325Z,87.81
2018-02-01T01:30:35.756Z,88.38
2018-02-01T01:33:03.237Z,88.86
2018-02-01T01:35:30.668Z,88.32
2018-02-01T01:37:58.128Z,88.21
2018-02-01T01:40:25.584Z,87.68
2018-02-01T01:42:53.045Z,88.29
2018-02-01T01:45:20.477Z,88.45
2018-02-01T01:47:47.929Z,88.31
2018-02-01T01:50:15.369Z,86.63
2018-02-01T01:52:42.800Z,87.19
2018-02-01T01:55:10.264Z,87.46
2018-02-01T01:57:37.704Z,88.77
2018-02-01T02:00:05.145Z,88.02
2018-02-01T02:02:32.624Z,89.18
2018-02-01T02:05:00.062Z,89.26
2018-02-01T02:07:27.497Z,89.13
2018-02-01T02:09:54.992Z,88.96
2018-02-01T02:12:22.451Z,88.83
2018-02-01T02:14:49.884Z,88.84
2018-02-01T02:17:17.485Z,89.68
2018-02-01T02:19:44.926Z,89.45
2018-02-01T02:22:12.356Z,88.66
2018-02-01T02:24:39.836Z,88.31
2018-02-01T02:27:07.268Z,88.28
2018-02-01T02:29:34.712Z,88.71
2018-02-01T02:32:02.527Z,88.34
2018-02-01T02:34:29.965Z,88.06
2018-02-01T02:36:57.401Z,88.51
2018-02-01T02:39:25.197Z,89.14
2018-02-01T02:41:52.634Z,90.52
2018-02-01T02:44:20.080Z,90.90
2018-02-01T02:46:47.685Z,90.75
2018-02-01T02:49:15.122Z,91.41
2018-02-01T02:51:42.553Z,90.71
2018-02-01T02:54:10.026Z,90.32
2018-02-01T02:56:37.490Z,90.17
2018-02-01T02:59:04.925Z,89.80
2018-02-01T03:01:32.593Z,90.44
2018-02-01T03:04:00.027Z,90.53
2018-02-01T03:06:27.468Z,90.01
2018-02-01T03:08:55.440Z,90.51
2018-02-01T03:11:22.876Z,90.68
2018-02-01T03:13:50.305Z,90.63
2018-02-01T03:16:17.865Z,90.33
2018-02-01T03:18:45.299Z,90.21
2018-02-01T03:21:12.741Z,91.43
2018-02-01T03:23:40.512Z,91.18
2018-02-01T03:26:07.964Z,90.97
2018-02-01T03:28:35.397Z,90.92
2018-02-01T03:31:03.211Z,91.44
2018-02-01T03:33:30.645Z,91.43
2018-02-01T03:35:58.077Z,90.23
2018-02-01T03:38:25.886Z,89.96
2018-02-01T03:40:53.320Z,89.80
2018-02-01T03:43:20.756Z,90.96
2018-02-01T03:45:48.463Z,91.58
2018-02-01T03:48:15.901Z,91.45
2018-02-01T03:50:43.353Z,91.51
2018-02-01T03:53:11.031Z,91.36
2018-02-01T03:55:38.474Z,91.29
2018-02-01T03:58:05.904Z,90.80
2018-02-01T04:00:33.613Z,91.39
2018-02-01T04:03:01.048Z,91.03
2018-02-01T04:05:28.476Z,90.83
2018-02-01T04:07:55.946Z,90.10
2018-02-01T04:10:23.380Z,90.25
2018-02-01T04:12:50.817Z,90.80
2018-02-01T04:15:18.563Z,90.93
2018-02-01T04:17:46.000Z,90.70
2018-02-01T04:20:13.442Z,90.83
2018-02-01T04:22:40.912Z,91.10
2018-02-01T04:25:08.374Z,91.18
2018-02-01T04:27:35.800Z,90.89
2018-02-01T04:30:03.276Z,91.40
2018-02-01T04:32:30.732Z,91.47
2018-02-01T04:34:58.165Z,91.55
2018-02-01T04:37:25.965Z,90.08
2018-02-01T04:39:53.405Z,90.51
2018-02-01T04:42:20.847Z,90.92
2018-02-01T04:44:48.308Z,90.04
2018-02-01T04:47:15.776Z,90.94
2018-02-01T04:49:43.208Z,91.02
2018-02-01T04:52:11.040Z,91.22
2018-02-01T04:54:38.472Z,91.34
2018-02-01T04:57:05.907Z,91.56
2018-02-01T04:59:33.687Z,92.29
2018-02-01T05:02:01.133Z,93.07
2018-02-01T05:04:28.573Z,93.02
2018-02-01T05:06:56.163Z,92.50
2018-02-01T05:09:23.625Z,92.65
2018-02-01T05:11:51.065Z,92.64
2018-02-01T05:14:18.568Z,92.14
2018-02-01T05:16:46.001Z,92.83
2018-02-01T05:19:13.433Z,92.63
2018-02-01T05:21:40.920Z,93.25
2018-02-01T05:24:08.377Z,93.29
2018-02-01T05:26:35.829Z,93.28
2018-02-01T05:29:03.291Z,92.04
2018-02-01T05:31:30.724Z,92.62
2018-02-01T05:33:58.153Z,92.58
2018-02-01T05:36:25.948Z,91.88
2018-02-01T05:38:53.384Z,91.85
2018-02-01T05:41:20.816Z,91.67
2018-02-01T05:43:48.705Z,91.23
2018-02-01T05:46:16.149Z,91.14
2018-02-01T05:48:43.585Z,90.97
2018-02-01T05:51:11.292Z,90.62
2018-02-01T05:53:38.768Z,90.89
2018-02-01T05:56:06.250Z,90.95
2018-02-01T05:58:33.875Z,91.21
2018-02-01T06:01:01.329Z,91.29
2018-02-01T06:03:28.763Z,91.42
2018-02-01T06:05:56.527Z,91.35
2018-02-01T06:08:24.006Z,91.13
2018-02-01T06:10:51.441Z,90.79
2018-02-01T06:13:19.229Z,91.00
2018-02-01T06:15:46.669Z,91.49
2018-02-01T06:18:14.120Z,91.20
2018-02-01T06:20:41.803Z,90.48
2018-02-01T06:23:09.235Z,91.27
2018-02-01T06:25:36.673Z,91.42
2018-02-01T06:28:04.136Z,91.30
2018-02-01T06:30:31.584Z,91.16
2018-02-01T06:32:59.286Z,90.51
2018-02-01T06:35:26.732Z,91.29
2018-02-01T06:37:54.182Z,90.23
2018-02-01T06:40:21.655Z,89.97
2018-02-01T06:42:49.089Z,89.67
2018-02-01T06:45:16.552Z,90.17
2018-02-01T06:47:43.989Z,90.26
2018-02-01T06:50:11.425Z,90.50
2018-02-01T06:52:38.898Z,90.67
2018-02-01T06:55:06.357Z,90.03
2018-02-01T06:57:33.953Z,89.37
2018-02-01T07:00:01.419Z,89.79
2018-02-01T07:02:29.933Z,89.92
2018-02-01T07:04:57.393Z,89.96
2018-02-01T07:07:24.824Z,89.93
2018-02-01T07:09:52.297Z,90.23
2018-02-01T07:12:19.796Z,91.12
2018-02-01T07:14:47.240Z,90.80
2018-02-01T07:17:14.705Z,90.21
2018-02-01T07:19:42.138Z,89.60
2018-02-01T07:22:09.597Z,90.70
2018-02-01T07:24:37.049Z,91.82
2018-02-01T07:27:04.485Z,93.05
2018-02-01T07:29:31.941Z,92.84
2018-02-01T07:31:59.377Z,91.50
2018-02-01T07:34:27.024Z,91.38
2018-02-01T07:36:54.457Z,91.62
2018-02-01T07:39:21.901Z,90.78
2018-02-01T07:41:49.353Z,91.41
2018-02-01T07:44:16.793Z,90.96
2018-02-01T07:46:44.352Z,90.17
2018-02-01T07:49:11.796Z,89.73
2018-02-01T07:51:39.244Z,89.63
2018-02-01T07:54:06.712Z,89.95
2018-02-01T07:56:34.157Z,89.92
2018-02-01T07:59:01.704Z,90.05
2018-02-01T08:01:29.134Z,89.72
2018-02-01T08:03:56.577Z,89.52
2018-02-01T08:06:24.033Z,88.12
2018-02-01T08:08:51.584Z,87.78
2018-02-01T08:11:19.290Z,86.67
2018-02-01T08:13:46.725Z,86.63
2018-02-01T08:16:14.173Z,86.24
2018-02-01T08:18:41.626Z,86.14
2018-02-01T08:21:09.067Z,85.34
2018-02-01T08:23:36.542Z,85.32
2018-02-01T08:26:04.054Z,85.58
2018-02-01T08:28:31.513Z,83.69
2018-02-01T08:30:58.973Z,84.85
2018-02-01T08:33:26.425Z,82.04
2018-02-01T08:35:54.049Z,82.22
2018-02-01T08:38:21.494Z,80.35
2018-02-01T08:40:48.949Z,81.15
2018-02-01T08:43:16.425Z,81.14
2018-02-01T08:45:43.862Z,82.91
2018-02-01T08:48:11.361Z,81.80
2018-02-01T08:50:38.821Z,81.58
2018-02-01T08:53:06.254Z,82.53
2018-02-01T08:55:33.710Z,81.41
2018-02-01T08:58:01.145Z,81.07
2018-02-01T09:00:28.622Z,80.59
2018-02-01T09:02:56.054Z,80.19
2018-02-01T09:05:23.486Z,79.27
2018-02-01T09:07:50.938Z,78.64
2018-02-01T09:10:18.374Z,78.18
2018-02-01T09:12:45.878Z,78.84
2018-02-01T09:15:13.354Z,78.04
2018-02-01T09:17:40.793Z,75.98
2018-02-01T09:20:08.280Z,76.86
2018-02-01T09:22:35.731Z,77.37
2018-02-01T09:25:03.432Z,77.46
2018-02-01T09:27:30.944Z,76.28
2018-02-01T09:29:58.392Z,76.57
2018-02-01T09:32:25.845Z,76.70
2018-02-01T09:34:53.278Z,75.99
2018-02-01T09:37:20.747Z,75.76
2018-02-01T09:39:48.195Z,76.47
2018-02-01T09:42:15.629Z,76.36
2018-02-01T09:44:43.105Z,77.17
2018-02-01T09:47:10.537Z,76.14
2018-02-01T09:49:38.166Z,77.36
2018-02-01T09:52:05.640Z,77.46
2018-02-01T09:54:33.080Z,77.70
2018-02-01T09:57:00.537Z,75.39
2018-02-01T09:59:27.989Z,74.55
2018-02-01T10:01:55.484Z,73.13
2018-02-01T10:04:22.954Z,73.34
2018-02-01T10:06:50.385Z,73.44
2018-02-01T10:09:17.845Z,73.92
2018-02-01T10:11:45.278Z,72.32
2018-02-01T10:14:12.737Z,73.39
2018-02-01T10:16:40.165Z,72.12
2018-02-01T10:19:07.605Z,71.44
2018-02-01T10:21:35.061Z,70.60
2018-02-01T10:24:02.503Z,71.07
2018-02-01T10:26:30.018Z,71.29
2018-02-01T10:28:57.453Z,70.31
2018-02-01T10:31:24.885Z,72.08
2018-02-01T10:33:52.353Z,71.98
2018-02-01T10:36:19.813Z,70.34
2018-02-01T10:38:47.545Z,70.97
2018-02-01T10:41:14.982Z,69.87
2018-02-01T10:43:42.425Z,70.08
2018-02-01T10:46:09.881Z,71.35
2018-02-01T10:48:37.335Z,73.11
2018-02-01T10:51:04.960Z,74.33
2018-02-01T10:53:32.397Z,73.39
2018-02-01T10:55:59.842Z,72.75
2018-02-01T10:58:27.300Z,72.31
2018-02-01T11:00:54.728Z,71.54
2018-02-01T11:03:22.389Z,71.40
2018-02-01T11:05:49.994Z,70.10
2018-02-01T11:08:17.445Z,70.00
2018-02-01T11:10:44.896Z,68.71
2018-02-01T11:13:12.325Z,68.16
2018-02-01T11:15:39.813Z,68.52
2018-02-01T11:18:07.249Z,68.55
2018-02-01T11:20:34.689Z,68.68
2018-02-01T11:23:02.158Z,68.42
2018-02-01T11:25:29.632Z,68.62
2018-02-01T11:27:57.120Z,68.62
2018-02-01T11:30:24.552Z,68.51
2018-02-01T11:32:52.107Z,70.10
2018-02-01T11:35:19.594Z,67.94
2018-02-01T11:37:47.064Z,68.75
2018-02-01T11:40:14.540Z,67.88
2018-02-01T11:42:41.972Z,68.21
2018-02-01T11:45:09.404Z,67.85
2018-02-01T11:47:36.877Z,67.29
2018-02-01T11:50:04.309Z,67.01
2018-02-01T11:52:32.110Z,66.64
2018-02-01T11:54:59.545Z,67.04
2018-02-01T11:57:26.985Z,65.67
2018-02-01T11:59:54.444Z,66.22
2018-02-01T12:02:21.878Z,64.27
2018-02-01T12:04:49.342Z,65.04
2018-02-01T12:07:16.777Z,66.15
2018-02-01T12:09:44.221Z,64.58
2018-02-01T12:12:11.689Z,65.75
2018-02-01T12:14:39.145Z,65.54
2018-02-01T12:17:06.629Z,65.24
2018-02-01T12:19:34.073Z,65.60
2018-02-01T12:22:01.520Z,66.50
2018-02-01T12:24:28.998Z,66.76
2018-02-01T12:26:56.461Z,65.41
2018-02-01T12:29:24.093Z,65.80
2018-02-01T12:31:51.549Z,66.87
2018-02-01T12:34:18.977Z,66.38
2018-02-01T12:36:46.434Z,66.42
2018-02-01T12:39:13.869Z,65.77
2018-02-01T12:41:41.803Z,67.84
2018-02-01T12:44:09.255Z,68.40
2018-02-01T12:46:36.704Z,69.09
2018-02-01T12:49:04.176Z,68.20
2018-02-01T12:51:31.615Z,66.85
2018-02-01T12:53:59.258Z,65.92
2018-02-01T12:56:26.729Z,67.52
2018-02-01T12:58:54.166Z,67.67
2018-02-01T13:01:21.625Z,69.86
2018-02-01T13:03:49.061Z,69.64
2018-02-01T13:06:16.739Z,69.64
2018-02-01T13:08:44.181Z,69.43
2018-02-01T13:11:11.641Z,68.67
2018-02-01T13:13:39.123Z,68.82
2018-02-01T13:16:06.557Z,70.84
2018-02-01T13:18:34.237Z,70.35
2018-02-01T13:21:01.668Z,69.41
2018-02-01T13:23:29.097Z,69.52
2018-02-01T13:25:56.577Z,70.07
2018-02-01T13:28:24.021Z,69.95
2018-02-01T13:30:51.504Z,69.36
2018-02-01T13:33:18.968Z,69.96
2018-02-01T13:35:46.464Z,66.82
2018-02-01T13:38:13.920Z,66.63
2018-02-01T13:40:41.384Z,65.21
2018-02-01T13:43:09.039Z,66.83
2018-02-01T13:45:36.473Z,68.79
2018-02-01T13:48:03.925Z,68.42
2018-02-01T13:50:31.385Z,69.20
2018-02-01T13:52:58.817Z,68.93
2018-02-01T13:55:26.332Z,69.73
2018-02-01T13:57:53.766Z,70.72
2018-02-01T14:00:21.200Z,69.71
2018-02-01T14:02:48.657Z,69.77
2018-02-01T14:05:16.090Z,71.83
2018-02-01T14:07:43.572Z,71.01
2018-02-01T14:10:11.185Z,71.17
2018-02-01T14:12:39.737Z,70.95
2018-02-01T14:15:07.324Z,70.66
2018-02-01T14:17:35.005Z,69.98
2018-02-01T14:20:02.851Z,70.86
2018-02-01T14:22:30.650Z,71.70
2018-02-01T14:24:58.154Z,70.95
2018-02-01T14:27:25.644Z,72.86
2018-02-01T14:29:53.079Z,73.82
2018-02-01T14:32:20.549Z,74.59
2018-02-01T14:34:48.198Z,76.26
2018-02-01T14:37:15.661Z,76.29
2018-02-01T14:39:43.145Z,75.37
2018-02-01T14:42:10.628Z,75.27
2018-02-01T14:44:39.331Z,74.45
2018-02-01T14:47:06.769Z,75.16
2018-02-01T14:49:34.212Z,74.51
2018-02-01T14:52:01.693Z,73.76
2018-02-01T14:54:29.129Z,73.57
2018-02-01T14:56:57.137Z,74.32
2018-02-01T14:59:24.596Z,73.25
2018-02-01T15:01:52.041Z,73.60
2018-02-01T15:04:19.522Z,72.83
2018-02-01T15:06:46.962Z,72.74
2018-02-01T15:09:14.675Z,71.60
2018-02-01T15:11:42.204Z,72.13
2018-02-01T15:14:09.644Z,72.89
2018-02-01T15:16:37.101Z,71.71
2018-02-01T15:19:04.532Z,69.80
2018-02-01T15:21:32.186Z,70.03
2018-02-01T15:24:00.111Z,71.50
2018-02-01T15:26:27.868Z,70.56
2018-02-01T15:28:55.305Z,71.23
2018-02-01T15:31:22.777Z,70.99
2018-02-01T15:33:50.570Z,71.61
2018-02-01T15:36:18.037Z,71.85
2018-02-01T15:38:45.493Z,70.84
2018-02-01T15:41:12.963Z,71.28
2018-02-01T15:43:40.426Z,72.18
2018-02-01T15:46:08.256Z,73.06
2018-02-01T15:48:35.850Z,73.12
2018-02-01T15:51:03.301Z,73.95
2018-02-01T15:53:30.773Z,74.58
2018-02-01T15:55:58.205Z,74.90
2018-02-01T15:58:25.847Z,74.91
2018-02-01T16:00:53.317Z,74.10
2018-02-01T16:03:20.744Z,74.65
2018-02-01T16:05:48.216Z,75.49
2018-02-01T16:08:15.691Z,75.34
2018-02-01T16:10:43.345Z,75.79
2018-02-01T16:13:10.811Z,76.54
2018-02-01T16:15:38.261Z,76.61
2018-02-01T16:18:05.725Z,76.78
2018-02-01T16:20:33.181Z,76.53
2018-02-01T16:23:00.933Z,77.04
2018-02-01T16:25:28.409Z,77.16
2018-02-01T16:27:55.844Z,77.66
2018-02-01T16:30:23.308Z,77.79
2018-02-01T16:32:50.743Z,77.38
2018-02-01T16:35:18.237Z,78.26
2018-02-01T16:37:46.218Z,78.69
2018-02-01T16:40:13.684Z,77.86
2018-02-01T16:42:41.149Z,78.10
2018-02-01T16:45:08.601Z,78.75
2018-02-01T16:47:37.897Z,78.53
2018-02-01T16:50:06.926Z,78.92
2018-02-01T16:52:34.477Z,79.22
2018-02-01T16:55:01.938Z,80.05
2018-02-01T16:57:29.372Z,81.35
2018-02-01T16:59:57.278Z,80.08
2018-02-01T17:02:24.767Z,79.68
2018-02-01T17:04:52.200Z,80.28
2018-02-01T17:07:19.657Z,81.39
2018-02-01T17:09:47.093Z,82.24
2018-02-01T17:12:14.873Z,84.56
2018-02-01T17:14:42.364Z,84.49
2018-02-01T17:17:09.804Z,86.11
2018-02-01T17:19:37.271Z,87.89
2018-02-01T17:22:04.727Z,87.52
2018-02-01T17:24:32.214Z,88.57
2018-02-01T17:26:59.645Z,88.15
2018-02-01T17:29:27.077Z,86.68
2018-02-01T17:31:54.532Z,86.94
2018-02-01T17:34:21.971Z,87.97
2018-02-01T17:36:49.435Z,88.61
2018-02-01T17:39:16.945Z,88.43
2018-02-01T17:41:44.401Z,88.17
2018-02-01T17:44:11.855Z,89.04
2018-02-01T17:46:39.297Z,88.13
2018-02-01T17:49:06.936Z,88.45
2018-02-01T17:51:34.417Z,88.31
2018-02-01T17:54:01.893Z,87.92
2018-02-01T17:56:29.977Z,88.42
2018-02-01T17:58:57.428Z,88.55
2018-02-01T18:01:24.913Z,88.53
2018-02-01T18:03:52.361Z,88.57
2018-02-01T18:06:19.797Z,88.41
2018-02-01T18:08:47.277Z,88.78
2018-02-01T18:11:14.722Z,88.93
2018-02-01T18:13:42.203Z,89.23
2018-02-01T18:16:09.670Z,89.46
2018-02-01T18:18:37.104Z,89.49
2018-02-01T18:21:04.580Z,89.32
2018-02-01T18:23:32.025Z,89.41
2018-02-01T18:25:59.692Z,89.96
2018-02-01T18:28:27.125Z,88.93
2018-02-01T18:30:58.158Z,88.98
2018-02-01T18:33:25.675Z,89.62
2018-02-01T18:35:53.153Z,89.82
2018-02-01T18:38:20.605Z,90.09
2018-02-01T18:40:48.071Z,90.14
2018-02-01T18:43:15.557Z,89.83
2018-02-01T18:45:42.988Z,89.81
2018-02-01T18:48:10.435Z,90.06
2018-02-01T18:50:38.257Z,89.90
2018-02-01T18:53:05.693Z,90.08
2018-02-01T18:55:33.181Z,89.47
2018-02-01T18:58:00.678Z,89.50
2018-02-01T19:00:28.153Z,89.77
2018-02-01T19:02:55.638Z,90.00
2018-02-01T19:05:23.143Z,89.87
2018-02-01T19:07:50.610Z,89.74
2018-02-01T19:10:18.070Z,90.05
2018-02-01T19:12:45.762Z,90.81
2018-02-01T19:15:13.205Z,90.92
2018-02-01T19:17:40.653Z,90.24
2018-02-01T19:20:08.108Z,89.17
2018-02-01T19:22:35.593Z,89.29
2018-02-01T19:25:03.062Z,90.17
2018-02-01T19:27:30.506Z,90.38
2018-02-01T19:29:57.953Z,92.39
2018-02-01T19:32:25.445Z,92.35
2018-02-01T19:34:53.207Z,92.12
2018-02-01T19:37:20.968Z,92.51
2018-02-01T19:39:48.533Z,92.64
2018-02-01T19:42:16.022Z,92.04
2018-02-01T19:44:43.567Z,91.72
2018-02-01T19:47:11.929Z,90.60
2018-02-01T19:49:39.421Z,91.37
2018-02-01T19:52:06.870Z,91.47
2018-02-01T19:54:34.304Z,90.41
2018-02-01T19:57:01.787Z,90.08
2018-02-01T19:59:29.221Z,91.41
2018-02-01T20:01:56.697Z,91.20
2018-02-01T20:04:24.134Z,91.01
2018-02-01T20:06:51.569Z,90.85
2018-02-01T20:09:19.064Z,90.06
2018-02-01T20:11:46.602Z,90.45
2018-02-01T20:14:14.222Z,90.21
2018-02-01T20:16:41.668Z,89.35
2018-02-01T20:19:09.105Z,90.30
2018-02-01T20:21:36.585Z,90.60
2018-02-01T20:24:04.040Z,90.24
2018-02-01T20:26:32.413Z,89.64
2018-02-01T20:28:59.870Z,89.22
2018-02-01T20:31:27.357Z,89.43
2018-02-01T20:33:54.903Z,89.60
2018-02-01T20:36:22.341Z,89.72
2018-02-01T20:38:49.804Z,90.20
2018-02-01T20:41:17.293Z,89.68
2018-02-01T20:43:44.732Z,89.67
2018-02-01T20:46:12.193Z,89.21
2018-02-01T20:48:39.624Z,90.37
2018-02-01T20:51:07.094Z,90.10
2018-02-01T20:53:34.545Z,89.91
2018-02-01T20:56:02.014Z,89.38
2018-02-01T20:58:29.523Z,89.42
2018-02-01T21:00:56.977Z,89.57
2018-02-01T21:03:24.457Z,90.24
2018-02-01T21:05:51.936Z,90.14
2018-02-01T21:08:19.373Z,89.65
2018-02-01T21:10:46.839Z,90.08
2018-02-01T21:13:14.273Z,90.25
2018-02-01T21:15:41.741Z,90.38
2018-02-01T21:18:09.170Z,89.99
2018-02-01T21:20:36.604Z,89.99
2018-02-01T21:23:04.060Z,89.63
2018-02-01T21:25:31.498Z,91.29
2018-02-01T21:27:59.395Z,90.05
2018-02-01T21:30:26.840Z,89.78
2018-02-01T21:32:54.288Z,90.30
2018-02-01T21:35:21.749Z,90.03
2018-02-01T21:37:49.235Z,90.33
2018-02-01T21:40:16.837Z,89.57
2018-02-01T21:42:44.369Z,89.67
2018-02-01T21:45:11.843Z,90.46
2018-02-01T21:47:39.325Z,89.88
2018-02-01T21:50:06.794Z,88.62
2018-02-01T21:52:34.426Z,88.18
2018-02-01T21:55:01.868Z,88.24
2018-02-01T21:57:29.297Z,87.81
2018-02-01T21:59:56.757Z,88.01
2018-02-01T22:02:24.188Z,87.55
2018-02-01T22:04:51.644Z,86.82
2018-02-01T22:07:19.080Z,86.96
2018-02-01T22:09:46.549Z,87.69
2018-02-01T22:12:14.027Z,88.99
2018-02-01T22:14:41.525Z,88.81
2018-02-01T22:17:09.193Z,89.17
2018-02-01T22:19:36.624Z,88.41
2018-02-01T22:22:04.057Z,88.74
2018-02-01T22:24:31.581Z,90.23
2018-02-01T22:26:59.050Z,89.69
2018-02-01T22:29:26.697Z,89.92
2018-02-01T22:31:54.160Z,88.94
2018-02-01T22:34:21.595Z,88.88
2018-02-01T22:36:49.110Z,87.99
2018-02-01T22:39:16.540Z,89.23
2018-02-01T22:41:44.498Z,89.35
2018-02-01T22:44:11.934Z,88.80
2018-02-01T22:46:39.373Z,88.29
2018-02-01T22:49:06.840Z,89.53
2018-02-01T22:51:34.289Z,90.58
2018-02-01T22:54:01.877Z,90.06
2018-02-01T22:56:29.313Z,89.33
2018-02-01T22:58:56.752Z,89.83
2018-02-01T23:01:24.204Z,88.03
2018-02-01T23:03:51.641Z,89.67
2018-02-01T23:06:19.372Z,89.62
2018-02-01T23:08:46.848Z,89.51
2018-02-01T23:11:14.296Z,89.50
2018-02-01T23:13:41.777Z,88.82
2018-02-01T23:16:09.256Z,89.06
2018-02-01T23:18:36.939Z,88.25
2018-02-01T23:21:04.402Z,89.27
2018-02-01T23:23:31.838Z,89.28
2018-02-01T23:25:59.295Z,88.57
2018-02-01T23:28:26.729Z,88.64
2018-02-01T23:30:54.468Z,88.15
2018-02-01T23:33:21.897Z,88.26
2018-02-01T23:35:49.333Z,87.99
2018-02-01T23:38:16.801Z,87.95
2018-02-01T23:40:44.244Z,88.85
2018-02-01T23:43:11.724Z,90.22
2018-02-01T23:45:39.161Z,90.90
2018-02-01T23:48:06.592Z,89.69
2018-02-01T23:50:34.045Z,89.78
2018-02-01T23:53:01.488Z,89.81
2018-02-01T23:55:29.198Z,89.32
2018-02-01T23:57:56.632Z,89.59
